Date,TemperatureHighF,TemperatureAvgF,TemperatureLowF,DewpointHighF,DewpointAvgF,DewpointLowF,HumidityHigh,HumidityAvg,HumidityLow,PressureMaxIn,PressureMinIn,WindSpeedMaxMPH,WindSpeedAvgMPH,GustSpeedMaxMPH,PrecipitationSumIn
2013-1-1,33.8,23.8,6.4,24.3,12.1,-3.5,69,58,48,29.23,29.00,6,2,12,0.13
2013-1-2,37.0,20.5,5.0,15.0,9.0,-4.8,76,59,40,29.41,29.12,4,2,7,0.00
2013-1-3,31.5,23.6,14.2,22.4,14.4,6.4,78,65,49,29.41,29.12,4,1,6,0.00
2013-1-4,40.6,32.1,26.8,21.5,17.3,10.9,70,52,39,29.15,29.03,5,2,13,0.00
2013-1-5,41.1,32.7,25.8,21.7,18.8,14.9,67,55,42,29.47,29.15,4,1,10,0.00
2013-1-6,41.0,34.8,30.6,30.1,24.1,19.0,87,64,50,29.26,29.06,3,1,6,0.00
2013-1-7,47.2,32.0,23.6,30.8,22.1,14.3,84,66,39,29.56,29.21,4,2,8,0.00
2013-1-8,45.4,31.5,25.3,22.6,18.9,17.1,73,58,40,29.50,29.35,3,1,6,0.00
2013-1-9,56.6,37.8,26.0,31.2,22.8,18.3,77,56,36,29.47,29.15,8,2,15,0.00
2013-1-10,55.4,38.7,28.6,28.4,21.4,17.0,70,50,33,29.74,29.44,7,1,18,0.00
2013-1-11,43.3,37.7,28.6,33.6,27.3,21.0,81,67,48,29.65,29.12,5,2,8,0.00
2013-1-12,56.2,45.4,38.3,44.7,40.6,32.7,98,84,63,29.21,29.18,4,2,8,0.04
2013-1-13,57.9,50.4,41.0,49.0,44.8,39.9,100,82,65,29.21,29.00,5,2,11,0.00
2013-1-14,52.0,40.5,30.4,46.9,27.1,15.5,86,59,40,29.53,28.94,7,2,14,0.00
2013-1-15,50.7,32.7,25.4,24.3,17.1,13.5,63,51,31,29.59,29.35,4,1,7,0.00
2013-1-16,34.9,31.3,29.7,26.9,22.6,17.8,79,68,53,29.35,28.97,3,1,6,0.00
2013-1-23,23.5,10.8,0.6,5.9,-4.0,-12.8,49,47,38,29.38,29.23,4,1,10,0.04
2013-1-24,24.7,8.8,0.2,7.2,-6.2,-13.1,59,46,39,29.62,29.23,7,2,13,0.00
2013-1-25,20.2,12.3,5.0,5.5,-1.1,-9.7,65,51,43,29.62,29.21,3,1,4,0.00
2013-1-26,32.0,13.0,0.3,14.1,1.0,-7.8,73,55,42,29.53,29.21,4,0,6,0.00
2013-1-27,45.2,22.6,6.8,19.3,9.5,-6.1,73,55,33,29.68,29.50,3,1,5,0.00
2013-1-28,38.7,32.0,17.9,37.5,26.2,8.8,96,78,49,29.56,29.03,4,1,8,0.09
2013-1-29,50.5,42.2,34.9,50.5,41.4,34.3,100,97,90,29.23,29.00,2,0,4,0.29
2013-1-30,63.5,54.6,50.2,52.1,48.5,44.3,100,81,63,29.03,28.29,6,3,12,0.08
2013-1-31,52.3,32.7,21.4,51.4,22.5,11.1,99,66,40,28.85,28.23,8,3,15,0.21
2013-2-1,32.2,20.6,16.3,13.9,8.5,4.0,70,55,41,29.35,28.88,6,2,14,0.00
2013-2-2,27.0,18.6,13.3,12.6,6.0,0.7,69,54,42,29.35,29.12,5,2,11,0.00
2013-2-3,32.2,19.3,8.6,17.1,9.0,1.4,82,61,42,29.12,28.91,4,1,6,0.00
2013-2-4,28.0,20.3,15.6,10.1,7.5,3.9,64,53,42,29.12,29.00,6,2,8,0.00
2013-2-5,39.4,24.5,17.3,17.7,12.1,9.0,69,57,39,29.12,29.00,3,1,6,0.00
2013-2-6,41.9,24.8,11.5,20.8,11.4,-1.4,76,54,31,29.53,29.00,6,1,11,0.00
2013-2-7,36.9,23.9,9.3,14.2,8.2,-3.3,70,50,39,29.59,29.26,4,1,9,0.00
2013-2-8,37.4,30.8,19.9,29.7,24.5,13.4,88,77,42,29.26,28.91,5,1,9,0.00
2013-2-9,27.9,19.6,8.6,15.7,11.4,1.1,81,68,52,29.56,29.15,4,1,8,0.00
2013-2-10,50.7,25.9,9.4,25.4,10.6,1.8,81,53,34,29.56,29.18,4,1,8,0.00
2013-2-11,59.4,39.3,34.9,33.8,23.4,14.3,73,54,38,29.18,28.79,6,3,12,0.08
2013-2-12,36.3,34.3,31.3,20.7,18.5,15.2,57,52,46,29.12,28.88,6,-2,11,0.04
2013-2-13,56.3,33.4,25.9,25.8,17.4,14.2,61,50,29,29.12,28.88,4,1,6,0.00
2013-2-14,56.0,35.7,24.6,32.9,23.5,15.6,90,63,28,29.09,28.94,4,1,6,0.00
2013-2-15,46.2,35.6,26.8,32.9,20.3,12.8,89,55,38,29.21,28.94,5,2,11,0.00
2013-2-16,42.7,26.2,20.7,18.7,11.0,7.9,56,49,32,29.23,29.06,4,1,7,0.00
2013-2-17,28.9,18.6,11.8,10.8,4.1,-3.7,63,49,36,29.26,29.00,8,3,15,0.00
2013-2-18,43.9,23.9,10.8,14.1,4.7,-4.7,58,41,29,29.44,29.12,5,2,8,0.00
2013-2-19,46.8,35.2,25.7,32.1,19.6,10.3,74,54,37,29.12,28.73,6,3,10,0.00
2013-2-20,27.1,23.0,19.6,13.6,9.1,6.1,66,51,42,29.21,28.91,7,3,13,0.00
2013-2-21,28.2,21.2,16.6,13.5,8.7,5.6,66,55,43,29.56,29.12,7,3,12,0.00
2013-2-22,35.2,28.8,21.2,21.3,16.7,13.1,74,60,45,29.53,29.21,6,-2,11,0.00
2013-2-23,40.4,35.3,32.5,30.3,26.4,20.1,78,70,58,29.21,29.00,4,2,8,0.00
2013-2-24,38.1,32.3,28.8,25.8,20.9,15.6,77,62,43,29.21,29.00,5,2,10,0.00
2013-2-25,42.3,33.1,22.3,24.1,19.4,13.7,70,56,41,29.41,29.18,6,2,11,0.00
2013-2-26,48.4,32.8,19.0,29.7,20.4,14.4,83,62,37,29.41,29.06,6,1,10,0.00
2013-2-27,40.1,35.0,33.0,34.2,31.5,27.6,96,87,77,29.03,28.73,3,0,4,1.25
2013-2-28,46.5,36.6,32.9,39.7,31.2,25.8,99,82,52,28.88,28.70,4,1,8,0.37
2013-3-1,41.0,31.7,26.8,30.3,24.7,18.8,88,74,54,29.09,28.88,7,3,11,0.00
2013-3-2,31.8,26.5,23.7,21.4,17.7,15.0,77,66,49,29.12,29.00,5,2,10,0.00
2013-3-3,32.5,25.4,21.9,19.1,15.7,12.0,77,64,47,29.03,28.97,5,2,10,0.00
2013-3-4,40.3,28.3,22.5,17.8,14.6,11.7,65,54,39,29.18,29.03,6,3,12,0.00
2013-3-5,51.4,29.1,21.4,25.2,16.3,13.4,73,57,34,29.26,29.12,4,1,8,0.00
2013-3-6,45.1,33.3,20.3,27.7,23.1,13.9,80,66,49,29.29,29.06,5,2,10,0.00
2013-3-7,41.5,34.8,30.6,24.9,21.7,17.5,68,58,44,29.41,29.26,5,2,10,0.00
2013-3-8,51.0,33.1,25.3,24.7,19.9,13.2,81,59,32,29.53,29.35,6,2,12,0.00
2013-3-9,65.6,35.5,23.0,32.6,21.8,16.5,83,60,26,29.56,29.41,3,1,5,0.00
2013-3-10,63.0,46.0,28.0,26.6,22.4,20.2,78,43,25,29.41,29.18,5,2,9,0.00
2013-3-11,55.6,51.7,48.7,40.7,24.2,18.1,59,34,28,29.23,28.91,6,3,15,0.00
2013-3-12,54.9,44.0,35.6,43.6,34.2,24.4,89,69,55,29.09,28.88,6,2,11,0.00
2013-3-13,46.6,34.7,24.9,25.0,18.4,11.6,66,50,36,29.12,29.00,6,2,10,0.00
2013-3-14,43.3,28.0,19.6,14.3,8.8,4.2,62,43,26,29.21,29.06,9,0,21,0.29
2013-3-15,40.6,31.5,21.2,25.0,16.1,5.5,62,51,43,29.21,28.88,6,2,11,0.00
2013-3-16,34.9,28.5,19.2,18.0,14.5,10.3,66,52,45,29.12,28.97,4,2,8,0.00
2013-3-17,41.5,26.2,16.5,23.5,13.9,6.5,74,58,40,29.47,29.12,5,1,10,0.00
2013-3-18,34.7,24.5,13.5,25.7,13.8,4.6,86,63,35,29.47,28.97,7,2,11,0.00
2013-3-19,49.7,34.4,26.8,34.6,23.7,13.0,88,65,41,29.00,28.85,6,2,12,0.00
2013-3-20,41.9,29.4,23.4,19.7,13.4,7.2,65,49,38,29.00,28.94,5,2,8,0.00
2013-3-21,40.2,26.8,18.3,19.2,11.4,7.8,71,51,32,29.00,28.88,5,1,8,0.00
2013-3-22,36.9,29.9,23.7,21.5,18.2,15.6,74,60,45,29.06,28.88,6,2,11,0.00
2013-3-23,45.7,34.3,29.5,22.0,18.4,14.8,69,52,38,29.15,29.03,7,3,13,0.00
2013-3-24,48.8,34.5,25.9,23.8,18.4,14.2,75,51,35,29.15,28.91,4,2,8,0.00
2013-3-25,45.2,35.4,28.5,25.2,20.9,17.4,66,55,40,28.91,28.76,5,2,8,0.00
2013-3-26,57.7,39.7,30.4,28.4,22.1,15.0,67,50,31,29.12,28.88,7,2,17,0.00
2013-3-27,58.6,38.4,31.1,31.2,24.3,19.6,79,58,29,29.21,29.06,8,1,13,0.08
2013-3-28,49.3,39.1,33.6,32.6,26.3,22.1,82,62,39,29.38,29.18,6,2,10,0.00
2013-3-29,55.4,42.2,32.4,30.2,25.2,20.7,65,52,36,29.38,29.29,5,1,10,0.00
2013-3-30,68.3,41.7,26.6,28.9,21.8,13.7,82,49,22,29.38,29.23,5,1,8,0.00
2013-3-31,56.7,40.4,29.8,38.5,28.5,17.0,90,64,32,29.26,28.82,6,1,11,0.00
2013-4-1,45.6,37.0,26.7,40.2,26.1,11.4,98,68,31,29.12,28.76,8,2,14,0.00
2013-4-2,41.7,30.3,21.7,16.1,12.4,9.2,62,46,31,29.26,29.09,7,3,24,0.00
2013-4-3,40.7,29.4,26.1,17.2,14.3,11.9,63,50,34,29.38,29.23,6,3,13,0.00
2013-5-2,85.6,63.9,45.3,38.8,33.0,27.3,57,35,18,29.62,29.47,4,1,7,1.62
2013-5-3,84.8,69.9,48.5,42.3,35.6,29.5,63,30,19,29.50,29.41,4,1,7,0.00
2013-5-4,84.4,63.5,43.2,39.8,33.3,28.1,60,35,20,29.50,29.35,18,1,18,0.00
2013-5-5,89.2,65.5,49.1,44.2,35.4,26.5,65,37,16,29.41,29.29,4,1,7,0.00
2013-5-6,87.4,63.9,40.1,39.7,34.5,28.5,70,38,17,29.38,29.21,4,1,8,0.00
2013-5-7,91.4,67.8,48.0,51.3,41.2,33.8,77,42,19,29.32,29.21,3,0,6,0.00
2013-5-8,73.3,62.1,54.7,58.2,50.4,41.5,90,66,45,29.26,29.12,3,0,6,0.25
2013-5-9,75.0,60.7,50.5,60.1,52.6,48.7,97,77,46,29.15,29.06,2,0,5,0.04
2013-5-10,77.5,62.4,53.1,57.2,52.8,47.8,97,74,38,29.18,28.97,4,-4,7,0.33
2013-5-11,66.7,60.1,49.8,60.6,50.1,40.8,100,72,42,29.00,28.88,3,0,6,0.29
2013-5-12,61.8,49.7,38.7,43.1,29.3,21.1,81,48,27,29.12,28.88,6,2,13,0.00
2013-5-13,54.3,43.8,35.2,27.5,23.0,19.7,59,44,33,29.32,29.12,4,1,7,0.00
2013-5-15,85.6,73.7,57.2,50.7,42.4,38.5,56,34,23,28.97,28.73,6,2,15,0.00
2013-5-16,85.7,67.3,53.4,47.7,38.5,27.1,73,40,18,29.15,28.94,6,1,12,0.00
2013-5-17,77.5,58.4,42.1,41.2,33.2,27.1,67,41,24,29.41,29.15,3,1,8,0.00
2013-5-18,73.2,58.5,42.4,43.8,39.0,30.2,74,51,32,29.44,29.35,4,0,6,0.00
2013-5-19,77.5,65.4,57.6,55.1,51.3,42.2,74,61,42,29.38,29.23,3,1,6,0.00
2013-5-20,93.8,75.5,62.1,60.6,55.7,51.8,84,55,28,29.26,29.06,4,0,6,0.00
2013-5-21,96.8,77.5,64.2,67.2,60.0,55.1,98,59,29,29.12,28.94,4,-22,9,0.62
2013-5-22,89.3,75.4,63.1,75.9,60.7,51.4,100,65,36,29.03,28.88,5,-416,9,0.00
2013-5-23,84.6,68.3,52.9,61.8,57.0,50.6,92,69,40,29.00,28.91,3,-12,7,0.00
2013-5-24,52.6,44.6,40.2,49.7,38.8,32.9,97,81,57,29.32,29.00,5,2,8,0.00
2013-5-25,61.0,50.9,41.4,34.4,31.0,27.4,69,48,34,29.35,29.29,3,1,8,0.00
2013-5-26,68.0,55.2,44.6,34.4,28.9,24.6,57,38,24,29.38,29.23,4,1,10,0.00
2013-5-27,81.5,60.8,43.9,41.1,31.9,25.8,61,37,20,29.44,29.32,3,0,7,0.00
2013-5-28,63.8,56.1,49.8,59.6,47.5,32.5,100,74,46,29.35,29.15,2,0,8,0.00
2013-5-29,89.4,71.9,59.7,71.0,62.1,57.4,100,76,37,29.26,29.12,3,0,6,0.00
2013-5-30,95.0,76.6,62.4,66.7,58.9,52.0,98,61,27,29.32,29.23,2,0,4,0.00
2013-5-31,99.6,78.6,64.0,65.4,57.2,48.7,91,55,21,29.32,29.12,2,0,5,0.00
2013-6-1,93.7,76.9,63.9,63.3,58.1,55.0,84,55,30,29.18,29.00,3,-380,6,0.00
2013-6-2,86.3,71.6,65.1,67.1,58.8,48.6,93,66,34,29.06,28.91,2,-32,10,0.00
2013-6-3,72.0,60.3,50.8,53.1,42.1,34.3,71,53,32,29.21,29.06,2,0,6,0.76
2013-6-4,75.9,59.7,46.6,41.0,34.9,28.3,74,43,23,29.35,29.18,4,0,8,0.00
2013-6-5,84.6,61.8,46.8,46.3,38.4,33.3,73,45,22,29.41,29.23,2,0,6,0.00
2013-6-6,59.8,56.7,54.0,58.5,50.1,35.9,99,80,46,29.26,29.03,2,-104,6,0.87
2013-6-7,67.4,62.2,57.9,64.6,60.1,57.6,100,93,80,29.06,28.97,2,0,3,0.00
2013-6-8,68.4,62.5,57.7,60.5,55.4,51.1,98,79,57,29.26,28.97,3,0,4,0.00
2013-6-9,85.3,64.9,55.6,56.0,51.0,45.7,91,65,32,29.41,29.26,1,0,4,0.00
2013-6-10,67.5,62.1,57.7,64.6,57.1,50.0,99,84,71,29.32,28.94,1,0,4,0.29
2013-6-11,69.4,65.3,62.2,66.3,61.5,53.1,100,88,69,29.03,28.82,4,0,7,0.33
2013-6-12,85.3,66.9,53.6,56.8,50.9,46.4,96,61,29,29.12,29.00,2,0,5,0.00
2013-6-13,64.6,61.9,58.5,61.5,57.0,54.1,99,84,71,29.00,28.67,2,0,8,0.42
2013-6-14,71.1,67.4,63.3,52.7,49.6,47.2,67,54,43,29.15,29.12,2,0,4,0.00
2013-6-15,82.1,67.7,54.9,55.1,45.3,33.7,86,50,22,29.23,29.12,2,0,6,0.00
2013-6-16,74.8,67.0,59.2,61.4,54.5,47.6,74,64,47,29.15,28.88,3,0,7,0.00
2013-6-17,87.4,70.9,59.4,63.2,55.7,43.0,94,65,26,29.12,29.00,3,0,8,0.21
2013-6-18,70.4,62.2,56.6,61.3,51.1,37.5,98,71,34,29.21,29.06,3,0,6,0.00
2013-6-19,79.3,61.3,48.0,46.4,40.5,35.2,86,50,24,29.38,29.18,2,0,6,0.00
2013-6-20,89.7,65.4,48.7,52.3,44.4,38.7,83,51,27,29.47,29.35,1,0,4,0.00
2013-6-21,93.0,71.5,54.5,54.6,48.8,42.1,74,48,24,29.47,29.35,2,0,4,0.00
2013-6-22,93.7,77.2,64.6,61.0,57.8,53.2,82,55,28,29.38,29.23,2,0,4,0.00
2013-6-23,98.4,79.1,70.7,67.6,63.0,55.1,89,61,31,29.29,29.21,4,0,6,0.04
2013-6-24,97.5,80.6,69.7,68.9,61.7,52.6,89,58,28,29.29,29.15,2,0,5,0.00
2013-6-25,87.8,76.8,68.7,67.3,61.0,54.0,90,60,41,29.18,29.00,2,0,6,0.00
2013-6-26,86.2,76.2,69.6,65.1,60.9,55.3,80,60,37,29.06,29.00,1,0,4,0.00
2013-6-27,86.3,74.3,66.2,68.6,64.8,58.7,96,75,42,29.03,28.82,2,0,4,0.00
2013-6-28,73.9,67.9,63.5,67.6,63.7,60.7,97,87,70,28.82,28.67,2,0,3,0.16
2013-6-29,79.3,67.7,63.0,67.5,63.8,59.3,99,88,54,28.91,28.70,2,0,3,0.42
2013-6-30,86.1,71.5,62.4,69.4,62.6,58.5,100,77,42,29.12,28.88,2,-5,6,0.00
2013-7-1,70.0,67.2,63.5,67.2,63.6,58.7,100,89,75,29.21,29.09,0,0,2,0.25
2013-7-2,89.4,71.2,62.2,73.3,65.5,62.2,100,85,46,29.29,29.18,1,0,3,0.00
2013-7-3,95.2,78.0,66.6,71.9,65.7,62.1,98,70,36,29.35,29.26,2,0,4,0.00
2013-7-4,91.5,79.1,73.0,72.1,67.8,63.1,84,69,42,29.38,29.29,0,0,0,0.00
2013-7-5,95.4,80.5,69.7,72.5,66.0,59.9,97,66,35,29.35,29.23,2,0,3,0.00
2013-7-6,97.8,79.6,70.2,70.9,64.2,56.2,96,64,28,29.35,29.23,0,0,1,0.00
2013-7-7,96.3,80.4,71.8,74.5,65.6,59.4,94,64,33,29.26,29.12,0,0,0,0.04
2013-7-8,93.5,76.7,70.2,68.5,63.2,58.9,90,65,34,29.29,29.18,0,0,0,0.08
2013-7-9,88.5,75.9,69.6,69.8,67.5,62.1,93,77,45,29.29,29.12,1,-4,4,0.00
2013-7-10,90.1,77.8,68.4,71.5,68.1,63.5,91,75,44,29.15,28.94,2,0,6,0.25
2013-7-11,84.4,72.6,64.2,64.6,56.4,51.1,89,60,35,29.21,29.00,3,0,6,0.00
2013-7-12,82.3,69.7,61.2,64.4,56.6,50.2,93,66,41,29.38,29.21,2,0,4,0.00
2013-7-13,80.7,73.4,64.0,66.3,61.9,54.2,87,68,52,29.47,29.35,3,0,5,0.00
2013-7-14,98.0,80.9,67.1,71.3,66.4,61.7,98,66,32,29.50,29.41,2,0,4,0.00
2013-7-15,99.6,80.8,71.2,72.9,67.0,60.9,90,66,30,29.50,29.41,2,-4,4,0.00
2013-7-16,101.2,82.1,68.9,69.4,63.0,56.3,91,58,26,29.50,29.41,3,-4,5,0.00
2013-7-17,103.3,84.0,70.3,69.9,65.1,58.6,88,58,25,29.44,29.26,2,-4,4,0.00
2013-7-18,102.0,82.7,74.8,73.8,68.4,59.1,87,65,27,29.32,29.15,3,0,5,0.00
2013-7-19,102.4,85.0,70.9,71.8,64.9,56.2,88,56,26,29.18,28.97,4,0,6,0.08
2013-7-20,81.4,72.8,66.2,68.5,64.1,58.3,94,75,55,29.09,28.88,4,0,6,0.13
2013-7-21,93.4,74.2,64.1,65.3,57.7,51.3,96,61,28,29.23,29.06,2,0,4,0.00
2013-7-22,89.4,74.3,61.2,68.9,60.5,54.7,92,65,36,29.21,29.00,0,0,0,0.12
2013-7-23,91.9,76.2,67.9,70.6,63.2,55.1,99,69,35,29.00,28.82,0,0,0,0.33
2013-7-24,73.3,65.0,53.1,60.1,47.5,41.3,76,54,36,29.23,28.88,2,0,4,0.00
2013-7-25,88.0,64.2,48.2,55.5,46.6,42.0,94,59,23,29.32,29.21,1,0,3,0.00
2013-7-26,93.9,69.0,53.1,58.7,49.4,42.9,92,55,21,29.32,29.18,0,0,2,0.00
2013-7-27,85.7,70.0,57.6,66.6,58.2,51.8,91,69,37,29.21,29.06,1,0,4,0.17
2013-7-28,83.9,69.8,61.9,70.1,63.8,55.8,99,84,43,29.21,29.03,0,0,1,0.58
2013-7-29,78.8,65.1,58.1,66.5,55.4,47.6,100,74,37,29.35,29.18,0,0,1,0.00
2013-7-30,86.1,68.4,55.9,58.7,52.2,46.9,93,61,29,29.41,29.32,2,0,4,0.00
2013-7-31,89.2,71.0,58.6,61.0,53.8,48.1,94,60,29,29.38,29.15,0,0,1,0.00
2013-8-1,82.9,69.6,63.7,66.8,58.6,52.8,87,69,44,29.18,29.00,3,-174,6,0.00
2013-8-2,72.5,65.9,59.5,61.0,58.1,53.7,92,76,61,29.09,29.03,3,-239,4,0.21
2013-8-3,89.6,71.6,62.2,58.6,49.5,39.0,82,49,21,29.12,29.00,3,-227,4,0.00
2013-8-4,80.8,66.7,58.6,53.9,46.7,41.0,71,50,31,29.23,29.12,1,-847,1,0.00
2013-8-5,87.6,66.9,55.6,54.8,46.1,39.6,82,51,23,29.32,29.21,0,-999,0,0.00
2013-8-6,90.5,69.1,54.3,56.6,50.4,42.9,88,56,23,29.26,29.18,0,-364,1,0.00
2013-8-7,80.2,71.9,66.1,63.0,58.3,53.1,77,63,50,29.23,29.12,0,0,3,0.00
2013-8-8,91.0,73.4,66.2,70.6,65.6,58.0,100,79,41,29.92,29.09,10,0,18,0.83
2013-8-9,77.6,71.5,64.0,73.3,67.7,59.0,100,89,65,29.15,29.03,0,0,0,0.12
2013-8-10,86.2,68.8,57.6,62.3,51.0,41.3,97,59,23,29.29,29.12,1,0,5,0.00
2013-8-11,86.3,66.4,56.7,58.3,51.4,44.4,91,62,30,29.32,29.23,0,-6,1,0.00
2013-8-12,88.7,70.6,60.4,59.1,55.1,49.7,83,61,32,29.26,29.06,0,0,1,0.00
2013-8-13,89.2,68.0,58.3,70.4,57.2,42.4,100,71,38,29.12,28.94,1,0,6,0.87
2013-8-14,76.1,61.6,53.4,53.1,43.7,38.6,83,53,33,29.26,29.00,2,0,7,0.00
2013-8-15,84.7,63.5,50.7,51.0,45.6,40.9,86,56,27,29.35,29.26,0,-7,2,0.00
2013-8-16,85.1,71.3,57.7,55.8,46.6,41.2,73,44,25,29.41,29.29,0,0,0,0.00
2013-8-17,90.1,69.3,56.1,58.1,51.3,44.4,91,58,28,29.50,29.41,0,0,1,0.00
2013-8-18,82.9,67.9,60.4,57.7,54.6,48.6,83,65,33,29.47,29.29,0,-10,2,0.00
2013-8-19,90.4,73.0,62.4,61.2,55.0,47.6,83,57,30,29.32,29.23,0,0,1,0.00
2013-8-20,95.6,74.2,61.0,60.8,54.9,47.1,90,57,22,29.35,29.23,0,0,2,0.00
2013-8-21,96.6,75.6,63.3,61.5,57.0,49.9,90,58,23,29.38,29.23,0,0,3,0.00
2013-8-22,95.1,75.3,65.8,66.4,61.1,53.9,91,66,30,29.26,29.09,1,0,3,0.13
2013-8-23,87.6,68.8,56.7,63.7,52.8,44.8,96,62,28,29.41,29.18,1,0,5,0.00
2013-8-24,92.1,66.2,52.8,60.0,48.4,42.0,93,59,21,29.56,29.38,0,0,2,0.00
2013-8-25,94.7,71.1,54.3,57.5,51.0,44.5,92,55,20,29.56,29.35,0,0,3,0.00
2013-8-26,88.2,71.7,66.7,70.4,62.4,54.1,100,75,40,29.38,29.12,0,0,1,0.62
2013-8-27,94.6,76.1,66.7,74.3,67.8,63.6,100,79,40,29.15,29.06,0,0,0,0.04
2013-8-28,90.4,74.7,68.5,73.2,68.9,65.1,98,83,45,29.15,29.06,0,0,0,0.08
2013-8-29,93.9,74.3,65.1,72.1,64.5,58.3,99,75,37,29.26,29.12,0,0,0,0.00
2013-8-30,95.0,76.3,64.0,67.8,61.6,52.9,97,66,27,29.21,29.00,0,0,0,0.00
2013-8-31,93.7,76.9,69.8,70.0,65.5,60.4,91,70,39,29.09,28.94,1,0,3,0.00
2013-9-1,87.8,75.8,68.9,70.3,65.2,59.7,93,72,43,29.06,28.94,0,0,2,0.09
2013-9-2,94.6,74.1,66.9,77.5,67.9,60.6,100,85,38,29.00,28.88,0,0,0,1.20
2013-9-7,70.5,67.3,63.9,54.8,49.1,45.1,71,53,42,29.21,29.06,0,0,3,0.00
2013-9-8,75.4,62.0,48.2,62.8,49.4,35.7,93,66,31,29.35,29.00,2,0,5,0.00
2013-9-9,85.6,63.0,47.7,53.8,45.5,38.6,93,58,27,29.35,29.18,1,0,4,0.00
2013-9-10,97.9,77.3,66.2,69.5,62.3,54.0,91,62,33,29.23,29.15,1,0,3,0.00
2013-9-11,102.9,80.1,69.8,72.0,67.7,56.6,96,70,26,29.29,29.12,4,-5,6,0.25
2013-9-12,79.7,69.3,61.4,74.0,65.6,58.7,96,88,61,29.12,28.91,0,0,6,0.59
2013-9-13,66.6,57.7,51.1,58.7,51.5,46.0,91,80,53,29.15,28.91,2,-5,6,0.00
2013-9-14,60.8,52.6,44.4,49.3,41.8,37.1,92,69,44,29.35,29.12,1,0,3,0.03
2013-9-15,73.4,57.0,43.9,48.6,44.0,39.2,88,65,34,29.32,29.23,2,0,6,0.00
2013-9-16,61.2,53.4,44.2,54.3,47.1,39.1,90,79,65,29.50,29.23,1,0,3,0.00
2013-9-17,78.0,52.7,36.9,48.0,38.8,32.7,99,66,24,29.62,29.47,1,0,3,0.00
2013-9-18,85.0,57.8,45.1,45.8,41.3,33.6,89,61,20,29.47,29.29,0,-17,3,0.00
2013-9-19,90.6,65.6,52.6,49.7,44.0,38.0,73,50,20,29.35,29.21,0,-5,3,0.00
2013-9-20,89.4,69.9,56.8,58.3,52.6,47.4,92,59,29,29.23,29.00,2,0,6,0.00
2013-9-21,71.8,64.9,55.3,58.8,56.5,52.7,97,75,57,29.03,28.85,3,0,7,0.54
2013-9-22,59.0,53.2,49.4,52.1,41.8,34.5,91,67,44,29.21,28.88,4,-5,8,0.00
2013-9-23,63.0,51.5,41.4,41.2,37.0,32.5,78,59,37,29.32,29.21,2,-5,5,0.00
2013-9-24,78.4,53.6,41.4,48.5,39.1,32.3,94,64,25,29.32,29.18,2,0,5,0.00
2013-9-25,85.5,58.1,44.8,53.3,42.0,37.7,92,61,22,29.21,29.12,0,0,2,0.00
2013-9-26,89.8,60.1,45.3,53.9,44.3,38.6,92,61,23,29.35,29.18,1,0,2,0.00
2013-9-27,84.6,59.8,45.9,56.3,46.5,41.8,93,66,28,29.47,29.32,0,0,2,0.00
2013-9-28,84.7,60.2,49.6,54.4,47.4,41.5,94,68,30,29.53,29.38,1,0,3,0.00
2013-9-29,84.7,59.8,44.8,54.2,43.4,38.8,96,60,25,29.38,29.23,1,-5,9,0.00
2013-9-30,83.6,65.2,54.5,54.2,48.3,45.0,74,57,30,29.23,29.12,0,0,2,0.00
2013-10-1,87.8,67.2,57.5,59.1,51.2,43.7,91,61,29,29.23,29.12,1,0,3,0.00
2013-10-2,87.3,65.1,54.3,61.7,51.6,42.6,93,66,32,29.26,29.15,2,0,6,0.00
2013-10-3,91.7,63.3,49.6,54.7,45.9,35.9,93,60,19,29.32,29.21,0,-5,1,0.00
2013-10-4,87.4,68.0,60.2,69.2,59.8,46.7,96,76,41,29.29,29.18,0,0,0,0.13
2013-10-5,69.4,64.0,61.2,64.7,59.7,57.1,97,86,72,29.29,29.23,0,0,1,0.04
2013-10-6,84.7,69.0,61.2,77.2,63.3,59.3,100,85,50,29.23,29.00,0,0,3,0.54
2013-10-7,73.8,62.7,50.9,62.3,52.8,37.1,100,71,48,29.21,28.85,4,0,10,0.66
2013-10-8,80.7,55.4,43.5,48.9,40.0,32.9,93,61,23,29.56,29.21,1,-10,4,0.00
2013-10-9,81.6,54.8,42.3,51.3,40.2,32.9,94,65,21,29.59,29.47,1,0,4,0.00
2013-10-10,80.7,55.5,44.6,48.3,40.3,32.4,91,63,22,29.50,29.35,1,-5,2,0.00
2013-10-11,69.2,55.7,46.2,52.4,44.0,36.9,89,68,33,29.35,29.29,0,-5,1,0.00
2013-10-12,90.4,55.3,41.7,53.7,40.2,29.3,97,65,15,29.41,29.29,1,-5,3,0.00
2013-10-13,77.2,62.1,49.5,51.5,46.6,40.8,83,59,36,29.50,29.41,0,-9,3,0.00
2013-10-14,61.5,57.8,55.8,57.9,53.7,47.2,100,87,59,29.50,29.47,0,0,1,0.17
2013-10-15,72.5,59.8,53.8,56.7,52.5,49.3,100,79,49,29.47,29.18,1,-9,2,0.00
2013-10-16,63.7,60.2,54.0,54.7,48.3,39.7,91,66,48,29.21,29.00,1,-5,6,0.08
2013-10-17,80.5,59.3,45.3,54.3,46.9,39.6,99,69,27,29.09,28.85,2,0,3,0.54
2013-10-18,66.3,53.1,43.3,51.9,41.0,32.5,94,67,33,29.12,28.91,2,0,6,0.04
2013-10-19,64.0,53.4,45.0,44.1,38.6,34.9,80,59,36,29.12,28.82,1,-9,4,0.00
2013-10-20,57.5,46.9,41.2,41.3,35.4,33.1,83,65,44,29.18,28.94,0,-4,2,0.00
2013-10-21,76.6,56.5,42.1,41.8,34.1,26.6,84,48,22,29.21,29.00,1,0,3,0.00
2013-10-22,61.9,49.5,37.9,44.1,31.2,21.1,79,52,27,29.03,28.94,4,-5,7,0.00
2013-10-23,59.0,42.1,32.8,36.4,30.5,26.5,80,64,35,29.03,28.85,1,0,3,0.00
2013-10-24,60.1,41.3,29.4,34.5,27.6,21.4,89,63,30,29.15,28.94,1,-10,6,0.04
2013-10-25,57.5,42.2,34.9,34.0,29.6,26.0,79,62,37,29.35,29.18,1,-4,4,0.05
2013-10-26,48.4,44.2,40.6,32.2,24.6,21.4,71,47,37,29.32,28.97,1,-5,5,0.00
2013-10-27,51.3,43.9,36.9,31.7,26.3,21.5,71,50,39,29.26,29.00,0,-4,2,0.00
2013-10-28,55.2,42.7,32.8,32.9,26.5,20.6,73,53,38,29.56,29.23,1,-9,3,0.00
2013-10-29,63.2,40.0,25.3,30.8,23.0,19.0,79,53,26,29.65,29.47,0,0,1,0.00
2013-10-30,74.8,48.9,36.3,40.0,31.6,24.9,83,55,24,29.47,29.32,0,0,2,0.00
2013-10-31,61.9,53.9,36.0,57.6,49.6,28.2,99,86,72,29.32,28.67,1,0,5,0.25
2013-11-1,75.9,60.9,51.8,59.3,45.6,30.3,99,64,23,28.88,28.47,4,1,12,0.29
2013-11-2,59.1,48.1,38.5,45.7,39.3,34.5,92,73,45,29.12,28.82,5,-4,6,0.12
2013-11-3,45.5,34.6,26.6,36.4,22.8,13.2,92,63,35,29.68,29.12,5,-3,11,0.04
2013-11-4,57.4,34.7,21.2,32.5,17.5,13.5,84,53,25,29.83,29.65,1,-5,3,0.00
2013-11-5,58.2,45.6,36.9,30.5,21.0,13.8,50,38,28,29.68,29.50,1,0,3,0.00
2013-11-6,66.1,55.3,47.1,45.6,38.0,30.5,68,53,38,29.53,29.03,1,-9,5,0.00
2013-11-7,56.3,45.2,35.3,51.0,34.3,23.6,89,66,49,29.18,28.97,2,-5,6,0.21
2013-11-8,47.8,38.4,32.5,27.4,21.5,16.9,71,51,38,29.38,29.12,1,0,6,0.00
2013-11-9,48.2,42.4,36.0,25.8,22.4,19.5,58,45,38,29.38,29.00,0,0,2,0.00
2013-11-10,52.4,46.1,40.1,35.0,26.5,21.0,62,46,38,29.29,28.94,6,1,11,0.00
2013-11-11,46.6,39.2,30.0,31.2,23.9,18.0,78,55,38,29.35,29.12,6,1,13,0.00
2013-11-12,40.4,29.4,23.5,24.2,16.0,12.0,74,55,37,29.53,29.23,7,-2,13,0.00
2013-11-13,49.9,30.8,15.3,21.4,14.3,8.7,76,52,31,29.59,29.26,4,-19,8,0.00
2013-11-14,60.6,41.8,31.3,23.6,13.9,8.7,41,32,23,29.29,29.18,3,-4,7,0.00
2013-11-15,61.9,42.8,30.4,25.6,17.0,9.0,50,36,24,29.35,29.23,0,-5,2,0.00
2013-11-16,72.3,48.0,29.8,33.4,25.5,17.7,68,43,24,29.44,29.26,0,0,2,0.00
2013-11-17,58.8,53.7,44.2,52.7,45.0,29.8,89,73,51,29.26,28.64,5,-14,10,0.04
2013-11-18,63.9,49.3,36.9,54.8,30.9,16.9,93,51,27,29.09,28.61,5,2,12,0.12
2013-11-19,43.7,35.2,27.8,23.7,17.5,12.5,62,48,38,29.59,29.06,6,2,10,0.00
2013-11-20,55.0,29.9,19.3,25.9,16.1,12.0,72,56,28,29.77,29.59,3,-6,5,0.00
2013-11-21,46.0,37.3,27.5,34.3,19.3,9.7,80,48,37,29.68,29.44,5,-8,10,0.00
2013-11-22,49.5,42.1,35.1,45.1,37.0,22.4,92,82,58,29.44,29.15,9,-4,14,0.17
2013-11-23,44.2,30.7,17.2,22.5,16.8,4.2,66,54,38,29.32,29.12,7,3,15,0.00
2013-11-24,34.3,18.8,15.0,10.8,6.3,3.1,71,55,34,29.53,29.26,7,-2,17,0.00
2013-11-25,39.4,27.3,15.4,14.8,8.4,4.2,63,45,31,29.53,29.29,4,-3,8,0.00
2013-11-26,36.4,33.8,32.4,29.8,21.5,8.4,89,62,35,29.35,28.97,3,1,7,0.29
2013-11-27,35.3,31.7,23.4,33.6,28.6,14.6,100,88,64,29.03,28.76,7,-21,11,0.58
2013-11-28,39.8,25.0,18.5,17.1,12.3,7.8,73,56,39,29.56,29.03,0,-22,0,0.00
2013-11-29,41.7,22.4,10.2,19.7,12.2,-0.1,81,64,36,29.85,29.53,4,-10,6,0.00
2013-11-30,35.7,24.4,10.2,17.2,11.6,-0.1,80,57,39,29.88,29.38,6,-4,10,0.00
2013-12-1,39.9,33.7,30.4,31.2,22.1,15.8,86,61,46,29.38,29.12,4,-4,10,0.08
2013-12-2,41.7,37.0,35.1,32.3,29.7,27.5,86,75,61,29.15,29.00,3,-10,5,0.09
2013-12-3,55.9,33.9,25.9,31.4,24.2,17.8,87,68,35,29.18,29.06,3,-343,4,0.00
2013-12-4,59.6,38.7,28.8,43.1,29.7,23.2,96,72,37,29.21,29.12,4,-4,6,0.00
2013-12-5,58.5,51.1,42.9,48.5,42.6,30.8,86,73,49,29.18,28.97,6,-13,10,0.04
2013-12-6,42.8,35.0,30.5,38.0,28.6,22.1,93,77,63,29.41,29.12,4,-14,7,0.37
2013-12-7,40.7,29.1,20.3,24.6,14.5,5.6,77,53,34,29.68,29.38,6,2,9,0.00
2013-12-8,31.5,24.4,18.3,20.5,10.2,5.3,77,51,41,29.74,29.38,5,1,8,0.00
2013-12-9,41.2,34.6,26.1,31.0,23.2,15.2,81,63,46,29.41,29.00,4,2,10,0.00
2013-12-10,33.6,27.5,20.3,16.3,12.7,7.5,65,50,44,29.21,29.06,7,-20,10,0.00
2013-12-11,35.6,23.8,11.7,19.5,13.1,0.0,74,61,43,29.41,29.21,5,-28,8,0.00
2013-12-12,31.9,16.8,7.2,10.8,2.1,-4.3,55,48,35,29.47,29.18,4,1,8,0.00
2013-12-13,29.0,20.9,15.4,15.5,10.1,5.0,69,59,46,29.50,29.12,5,-12,8,0.00
2013-12-14,24.4,18.1,9.7,19.8,10.6,1.0,83,69,61,29.56,28.94,3,-18,6,0.00
2013-12-15,36.3,26.6,21.2,24.6,18.7,7.0,87,70,43,29.00,28.73,4,-14,7,0.00
2013-12-16,38.8,17.5,3.0,16.3,4.2,-9.3,69,52,35,29.32,29.00,5,1,17,0.00
2013-12-17,30.9,17.9,3.2,20.3,8.9,-9.1,80,65,52,29.32,29.06,3,-4,7,0.00
2013-12-18,37.0,28.5,23.1,24.0,19.6,15.9,79,68,48,29.23,29.09,3,-28,5,0.00
2013-12-19,52.4,35.7,26.8,26.8,20.2,13.6,73,53,36,29.21,29.06,3,-15,6,0.04
2013-12-20,46.4,42.1,34.3,44.0,33.2,27.1,93,72,49,29.15,28.97,3,1,6,0.04
2013-12-21,54.9,46.9,34.2,51.5,44.8,33.1,98,92,82,29.06,28.94,4,-4,6,0.67
2013-12-22,60.7,40.2,32.7,57.3,38.4,32.7,100,94,63,29.15,28.76,3,-4,8,0.12
2013-12-23,42.1,37.5,27.7,40.7,30.8,15.3,99,78,51,29.41,29.12,0,0,2,0.00
2013-12-24,30.0,22.4,12.6,23.4,13.1,3.4,75,64,52,29.59,29.32,1,0,5,0.00
2013-12-25,24.4,16.3,6.1,9.2,4.2,-2.9,71,55,43,29.68,29.35,1,0,5,0.00
2013-12-26,40.0,29.4,23.9,19.9,15.5,8.1,63,53,43,29.41,29.21,3,0,9,0.00
2013-12-27,36.4,29.7,23.0,23.2,17.4,10.8,73,58,52,29.44,29.29,0,0,3,0.00
2013-12-28,58.4,38.6,28.6,30.6,22.8,18.9,75,54,33,29.29,29.12,1,0,5,0.00
2013-12-29,43.5,38.5,29.5,35.2,29.1,22.0,93,71,42,29.12,28.82,1,0,6,0.25
2013-12-30,36.9,22.4,13.3,32.5,14.0,4.4,86,67,54,29.35,28.88,6,-5,12,0.00
2013-12-31,31.4,19.6,14.8,15.4,7.2,1.5,66,55,40,29.41,29.12,0,0,0,0.00
2014-1-1,27.1,19.1,13.3,8.8,5.6,0.4,68,52,41,29.56,29.35,0,0,0,0.00
2014-1-2,15.8,11.8,6.1,8.3,3.8,-2.8,70,67,61,29.44,29.06,0,-5,0,0.00